Time;durP1;ratioP1;P1;durP2;ratioP2;P2;SDS_P1;SDS_P2;PMS_P1;PMS_P2;Temp;Humidity;BMP_temperature;BMP_pressure;BME280_temperature;BME280_humidity;BME280_pressure;Samples;Min_cycle;Max_cycle;Signal;HPM_P1;HPM_P2
2021/10/15 00:01:11;;;;;;;9.25;6.72;;;;;;;11.99;82.77;100869.19;5014622;28;20050;-79
2021/10/15 00:03:37;;;;;;;10.73;6.85;;;;;;;11.96;82.59;100864.81;5011784;28;20030;-79
2021/10/15 00:06:02;;;;;;;9.27;6.95;;;;;;;11.99;82.66;100863.91;5014818;28;20050;-79
2021/10/15 00:08:27;;;;;;;10.05;6.57;;;;;;;11.89;82.32;100851.63;5010881;28;20038;-79
2021/10/15 00:10:53;;;;;;;10.18;6.13;;;;;;;11.85;82.64;100851.63;5013750;28;20045;-79
2021/10/15 00:13:18;;;;;;;9.30;6.93;;;;;;;11.89;82.47;100852.50;5011761;28;20034;-79
2021/10/15 00:15:43;;;;;;;8.55;5.63;;;;;;;11.96;82.75;100854.22;5013673;28;20046;-79
2021/10/15 00:18:09;;;;;;;8.68;6.30;;;;;;;11.95;82.24;100847.19;5013319;28;20049;-79
2021/10/15 00:20:34;;;;;;;7.55;5.57;;;;;;;11.92;81.88;100852.50;5015565;28;20550;-79
2021/10/15 00:22:59;;;;;;;8.00;5.80;;;;;;;11.95;82.04;100841.03;5012076;28;20046;-79
2021/10/15 00:25:25;;;;;;;8.68;6.45;;;;;;;11.94;82.03;100841.91;5013978;28;20038;-79
2021/10/15 00:27:50;;;;;;;6.43;5.00;;;;;;;11.91;81.71;100834.88;5014768;28;20033;-79
2021/10/15 00:30:15;;;;;;;6.47;5.53;;;;;;;11.85;82.38;100832.25;5011304;28;20042;-79
2021/10/15 00:32:41;;;;;;;6.72;5.38;;;;;;;11.87;82.48;100827.84;5011597;28;20037;-79
2021/10/15 00:35:06;;;;;;;9.30;5.63;;;;;;;11.89;82.28;100833.13;5024317;28;20038;-79
2021/10/15 00:37:31;;;;;;;7.47;4.95;;;;;;;11.90;82.19;100832.25;5012148;28;20072;-79
2021/10/15 00:39:57;;;;;;;8.32;4.80;;;;;;;11.95;82.15;100828.69;5009975;28;20038;-79
2021/10/15 00:42:22;;;;;;;6.90;5.10;;;;;;;11.93;82.37;100826.94;5014997;28;20092;-79
2021/10/15 00:44:47;;;;;;;6.75;5.03;;;;;;;11.93;81.84;100821.66;5010306;28;20038;-79
2021/10/15 00:47:13;;;;;;;5.75;4.57;;;;;;;11.95;81.99;100825.16;5010641;28;20034;-79
2021/10/15 00:49:38;;;;;;;10.60;4.97;;;;;;;11.91;81.92;100821.63;5009907;28;20060;-79
2021/10/15 00:52:07;;;;;;;7.55;5.13;;;;;;;11.95;81.61;100819.88;5023918;28;20038;-79
2021/10/15 00:54:33;;;;;;;7.13;4.88;;;;;;;11.92;81.51;100820.78;5025169;28;20100;-79
2021/10/15 00:56:58;;;;;;;6.30;4.70;;;;;;;11.99;81.47;100817.16;5007408;28;20038;-79
2021/10/15 00:59:23;;;;;;;7.05;5.05;;;;;;;11.97;81.17;100815.41;5010698;28;20061;-79
2021/10/15 01:01:48;;;;;;;7.78;4.80;;;;;;;11.94;81.36;100813.69;5009277;28;20174;-79
2021/10/15 01:04:14;;;;;;;7.03;5.13;;;;;;;11.97;81.29;100807.50;5011612;28;20460;-79
2021/10/15 01:06:39;;;;;;;5.88;4.35;;;;;;;12.00;80.87;100807.50;5009110;28;20057;-79
2021/10/15 01:09:06;;;;;;;6.60;4.97;;;;;;;12.01;80.97;100803.94;5012954;28;20116;-79
2021/10/15 01:11:32;;;;;;;8.82;5.65;;;;;;;11.96;80.98;100792.53;5009207;28;20070;-79
2021/10/15 01:13:58;;;;;;;7.53;6.10;;;;;;;12.01;81.19;100793.38;5010455;28;20042;-79
2021/10/15 01:16:27;;;;;;;10.40;5.90;;;;;;;12.02;80.49;100795.09;5009891;28;20038;-79
2021/10/15 01:18:55;;;;;;;10.23;6.03;;;;;;;12.02;80.39;100782.75;5013079;28;20045;-79
2021/10/15 01:21:21;;;;;;;9.32;6.00;;;;;;;11.99;80.28;100777.50;5011125;28;20049;-79
2021/10/15 01:23:46;;;;;;;10.07;6.18;;;;;;;11.95;80.45;100772.25;5010953;28;20096;-78
2021/10/15 01:26:12;;;;;;;8.45;4.85;;;;;;;11.98;80.51;100770.47;5010574;28;20077;-79
2021/10/15 01:28:37;;;;;;;7.53;5.43;;;;;;;12.03;80.67;100766.00;5024307;28;20031;-79
2021/10/15 01:31:03;;;;;;;9.43;5.68;;;;;;;12.04;79.95;100770.41;5018512;28;20048;-79
2021/10/15 01:33:29;;;;;;;9.57;5.68;;;;;;;12.08;79.69;100768.63;5024042;28;20035;-78
2021/10/15 01:35:55;;;;;;;8.63;5.32;;;;;;;12.04;79.79;100754.53;5010260;28;20046;-79
2021/10/15 01:38:20;;;;;;;8.48;5.40;;;;;;;12.10;79.99;100755.38;5011577;28;20046;-78
2021/10/15 01:40:46;;;;;;;10.45;5.55;;;;;;;12.09;79.64;100753.63;5011460;28;20033;-79
2021/10/15 01:43:19;;;;;;;7.10;5.63;;;;;;;12.12;79.91;100749.16;5007495;28;20031;-78
2021/10/15 01:45:44;;;;;;;7.57;5.30;;;;;;;11.99;79.68;100756.31;5007787;28;20042;-79
2021/10/15 01:48:09;;;;;;;8.32;5.38;;;;;;;12.01;79.81;100748.41;5010559;28;20103;-79
2021/10/15 01:50:35;;;;;;;6.90;4.93;;;;;;;12.07;80.01;100746.56;5007971;28;20042;-79
2021/10/15 01:53:01;;;;;;;12.13;5.63;;;;;;;12.07;79.24;100737.75;5010236;28;20038;-79
2021/10/15 01:55:26;;;;;;;7.03;5.45;;;;;;;12.10;79.15;100742.13;5008346;28;20042;-79
2021/10/15 01:57:52;;;;;;;8.25;6.05;;;;;;;12.02;79.25;100736.91;5010284;28;20037;-79
2021/10/15 02:00:17;;;;;;;9.98;6.05;;;;;;;12.10;79.36;100729.78;5009322;28;20033;-79
2021/10/15 02:02:43;;;;;;;8.45;6.53;;;;;;;12.09;79.09;100728.03;5009181;28;20408;-79
2021/10/15 02:05:10;;;;;;;12.40;6.72;;;;;;;12.07;79.48;100732.47;5025858;28;20038;-79
2021/10/15 02:07:37;;;;;;;8.45;5.13;;;;;;;12.10;79.10;100719.19;5010018;28;20030;-79
2021/10/15 02:10:04;;;;;;;10.00;6.22;;;;;;;12.10;78.94;100718.31;5010789;28;20156;-79
2021/10/15 02:12:29;;;;;;;9.73;5.72;;;;;;;12.08;79.21;100721.00;5008921;28;20416;-79
2021/10/15 02:14:55;;;;;;;7.70;6.10;;;;;;;12.08;79.06;100710.41;5015585;28;20045;-79
2021/10/15 02:17:20;;;;;;;8.02;5.40;;;;;;;12.02;78.68;100710.47;5012572;28;20046;-79
2021/10/15 02:19:45;;;;;;;8.70;4.90;;;;;;;12.08;78.64;100707.78;5016203;28;20057;-79
2021/10/15 02:22:11;;;;;;;9.30;5.20;;;;;;;12.11;79.08;100714.81;5010675;28;20041;-79
2021/10/15 02:24:36;;;;;;;10.35;7.22;;;;;;;12.05;79.35;100707.78;5015977;28;20029;-79
2021/10/15 02:27:02;;;;;;;7.93;6.18;;;;;;;12.09;78.98;100700.72;5012932;28;20495;-80
2021/10/15 02:29:28;;;;;;;8.45;5.20;;;;;;;12.16;78.00;100691.84;5012795;28;20056;-80
2021/10/15 02:31:53;;;;;;;7.22;5.13;;;;;;;12.15;78.06;100695.34;5012647;28;20033;-80
2021/10/15 02:34:19;;;;;;;7.18;5.20;;;;;;;12.09;78.29;100698.94;5027962;28;20038;-80
2021/10/15 02:36:44;;;;;;;7.68;5.05;;;;;;;12.03;78.16;100691.06;5013592;28;20488;-79
2021/10/15 02:39:10;;;;;;;6.45;4.88;;;;;;;12.05;77.92;100692.81;5011888;28;20030;-79
2021/10/15 02:41:37;;;;;;;8.25;5.15;;;;;;;12.06;77.85;100688.38;5014201;28;20073;-79
2021/10/15 02:44:21;;;;;;;6.97;5.25;;;;;;;12.01;77.97;100688.44;5012925;28;20034;-79
2021/10/15 02:46:46;;;;;;;6.45;4.53;;;;;;;11.98;78.06;100677.88;5016942;28;20041;-80
2021/10/15 02:49:11;;;;;;;7.85;5.28;;;;;;;11.95;78.41;100683.19;5010309;28;20046;-79
2021/10/15 02:51:37;;;;;;;7.90;5.63;;;;;;;11.92;78.37;100682.34;5013497;28;20042;-79
2021/10/15 02:54:03;;;;;;;7.43;4.97;;;;;;;11.94;78.87;100680.56;5013532;28;20034;-79
2021/10/15 02:56:29;;;;;;;8.30;5.80;;;;;;;11.93;78.58;100678.81;5013974;28;20045;-79
2021/10/15 02:58:54;;;;;;;8.13;6.03;;;;;;;11.94;78.01;100673.50;5013140;28;20460;-79
2021/10/15 03:01:19;;;;;;;8.27;5.57;;;;;;;11.95;78.16;100677.91;5011326;28;20109;-79
2021/10/15 03:03:48;;;;;;;7.47;5.57;;;;;;;11.94;78.23;100669.97;5012983;28;20022;-79
2021/10/15 03:06:15;;;;;;;8.43;5.70;;;;;;;11.92;78.16;100661.19;5011771;28;20484;-79
2021/10/15 03:08:40;;;;;;;7.88;6.03;;;;;;;11.92;78.25;100667.38;5013569;28;20407;-79
2021/10/15 03:11:05;;;;;;;11.52;6.40;;;;;;;11.89;78.63;100666.50;5011054;28;20049;-79
2021/10/15 03:13:30;;;;;;;9.43;6.03;;;;;;;11.85;78.50;100655.06;5011996;28;20077;-79
2021/10/15 03:15:56;;;;;;;6.65;5.35;;;;;;;11.77;79.00;100655.13;5020218;28;20061;-79
2021/10/15 03:18:21;;;;;;;8.68;5.85;;;;;;;11.73;79.02;100656.03;5012953;28;20497;-80
2021/10/15 03:20:47;;;;;;;9.77;6.70;;;;;;;11.74;79.08;100652.50;5011644;28;20042;-79
2021/10/15 03:23:13;;;;;;;7.75;6.35;;;;;;;11.73;78.84;100645.44;5009630;28;20053;-79
2021/10/15 03:25:38;;;;;;;11.77;7.13;;;;;;;11.77;78.47;100657.75;5011494;28;20030;-79
2021/10/15 03:28:05;;;;;;;8.43;5.80;;;;;;;11.83;78.49;100652.41;5010299;28;20088;-79
2021/10/15 03:30:33;;;;;;;11.20;6.45;;;;;;;11.82;78.38;100645.38;5012257;28;20567;-79
2021/10/15 03:33:00;;;;;;;10.88;6.45;;;;;;;11.89;78.25;100648.00;5009137;28;20034;-79
2021/10/15 03:35:25;;;;;;;8.50;6.30;;;;;;;11.90;77.72;100636.53;5010914;28;20620;-78
2021/10/15 03:37:50;;;;;;;11.48;7.75;;;;;;;11.89;78.27;100633.00;5012966;28;20042;-78
2021/10/15 03:40:16;;;;;;;11.88;8.45;;;;;;;11.93;77.54;100633.84;5012732;28;20038;-79
2021/10/15 03:42:41;;;;;;;9.95;7.95;;;;;;;11.92;77.72;100634.72;5009864;28;20030;-78
2021/10/15 03:45:08;;;;;;;11.18;7.72;;;;;;;11.99;77.86;100632.00;5014112;28;20495;-79
2021/10/15 03:47:34;;;;;;;11.07;8.63;;;;;;;12.03;77.29;100627.59;5007898;28;20038;-78
2021/10/15 03:50:01;;;;;;;10.23;8.27;;;;;;;12.02;77.62;100629.31;5022832;28;20557;-78
2021/10/15 03:52:26;;;;;;;12.95;9.68;;;;;;;12.01;77.39;100624.06;5013811;28;20042;-78
2021/10/15 03:54:51;;;;;;;11.43;8.35;;;;;;;12.06;77.68;100632.84;5018340;28;20026;-79
2021/10/15 03:57:17;;;;;;;16.35;8.82;;;;;;;12.16;77.24;100623.91;5013153;28;20042;-79
2021/10/15 03:59:42;;;;;;;11.93;8.55;;;;;;;12.19;76.74;100623.88;5013754;28;20142;-78
2021/10/15 04:02:07;;;;;;;9.80;7.75;;;;;;;12.21;76.64;100622.09;5012373;28;20112;-79
2021/10/15 04:04:33;;;;;;;9.85;7.90;;;;;;;12.20;76.46;100620.31;5015542;28;20029;-79
2021/10/15 04:06:58;;;;;;;11.27;7.70;;;;;;;12.22;76.66;100612.38;5000271;28;20034;-80
2021/10/15 04:09:23;;;;;;;9.20;6.57;;;;;;;12.21;76.29;100611.50;5013469;28;20042;-79
2021/10/15 04:11:48;;;;;;;9.15;7.32;;;;;;;12.24;75.67;100600.88;5016882;28;20037;-80
2021/10/15 04:14:14;;;;;;;11.40;7.30;;;;;;;12.32;75.58;100610.50;5010420;28;20053;-80
2021/10/15 04:16:39;;;;;;;14.40;9.48;;;;;;;12.33;75.05;100596.38;5012625;28;20038;-79
2021/10/15 04:19:05;;;;;;;13.25;9.52;;;;;;;12.30;75.23;100591.13;5010385;28;20038;-79
2021/10/15 04:21:30;;;;;;;11.10;7.30;;;;;;;12.39;75.15;100596.28;5009260;28;20038;-79
2021/10/15 04:23:55;;;;;;;11.55;7.05;;;;;;;12.44;74.88;100594.44;5011599;28;20033;-80
2021/10/15 04:26:21;;;;;;;11.80;7.22;;;;;;;12.36;74.33;100588.38;5006161;28;20044;-80
2021/10/15 04:28:47;;;;;;;11.70;6.70;;;;;;;12.47;74.36;100594.41;5028473;28;20119;-78
2021/10/15 04:31:12;;;;;;;12.38;6.55;;;;;;;12.44;74.18;100590.06;5007481;28;20040;-77
2021/10/15 04:33:38;;;;;;;10.70;6.57;;;;;;;12.50;74.08;100587.31;5005416;28;20457;-79
2021/10/15 04:36:03;;;;;;;9.40;7.10;;;;;;;12.44;73.92;100575.91;5007455;28;20034;-78
2021/10/15 04:38:29;;;;;;;10.98;7.18;;;;;;;12.49;74.12;100574.97;5005398;28;20035;-79
2021/10/15 04:40:54;;;;;;;9.10;6.30;;;;;;;12.51;73.86;100572.31;5009864;28;20034;-80
2021/10/15 04:43:19;;;;;;;8.55;6.07;;;;;;;12.52;73.86;100573.19;5013136;28;20057;-80
2021/10/15 04:45:44;;;;;;;8.10;5.70;;;;;;;12.51;73.79;100569.66;5007701;28;20030;-79
2021/10/15 04:48:10;;;;;;;9.05;6.55;;;;;;;12.52;73.87;100571.41;5006896;28;20041;-79
2021/10/15 04:50:38;;;;;;;8.73;6.78;;;;;;;12.54;73.44;100566.09;5007662;28;20041;-79
2021/10/15 04:53:05;;;;;;;8.35;6.28;;;;;;;12.56;73.77;100562.53;5007545;28;20516;-79
2021/10/15 04:55:31;;;;;;;7.40;5.95;;;;;;;12.52;73.38;100562.59;5011693;28;20423;-79
2021/10/15 04:57:57;;;;;;;11.57;6.47;;;;;;;12.51;73.57;100559.06;5005754;28;20061;-79
2021/10/15 05:00:23;;;;;;;9.38;6.38;;;;;;;12.46;73.57;100547.66;5009515;28;20057;-78
2021/10/15 05:02:51;;;;;;;8.30;5.70;;;;;;;12.46;74.18;100552.97;5007779;28;20544;-78
2021/10/15 05:05:19;;;;;;;11.52;9.05;;;;;;;12.46;73.82;100552.97;5005150;28;20041;-78
2021/10/15 05:07:45;;;;;;;9.38;6.28;;;;;;;12.44;74.00;100549.44;5010278;28;20116;-78
2021/10/15 05:10:10;;;;;;;8.23;5.72;;;;;;;12.44;73.96;100544.16;5008928;28;20116;-79
2021/10/15 05:12:35;;;;;;;9.85;5.68;;;;;;;12.42;73.83;100546.84;5008127;28;20073;-78
2021/10/15 05:15:01;;;;;;;8.52;5.35;;;;;;;12.40;74.16;100543.34;5004513;28;20057;-79
2021/10/15 05:17:26;;;;;;;7.38;5.70;;;;;;;12.43;73.96;100542.41;5001185;28;20488;-78
2021/10/15 05:19:52;;;;;;;10.95;6.85;;;;;;;12.27;74.82;100541.75;5007082;28;20404;-79
2021/10/15 05:22:17;;;;;;;9.48;6.60;;;;;;;12.27;74.90;100534.69;5009694;28;20096;-79
2021/10/15 05:24:42;;;;;;;8.65;5.72;;;;;;;12.33;74.56;100538.16;5005251;28;20038;-79
2021/10/15 05:27:08;;;;;;;11.52;6.40;;;;;;;12.33;75.19;100540.78;5009676;28;20053;-79
2021/10/15 05:29:33;;;;;;;8.05;6.38;;;;;;;12.38;74.65;100536.31;5008610;28;20049;-78
2021/10/15 05:31:58;;;;;;;8.73;6.80;;;;;;;12.38;74.88;100533.66;5010131;28;20137;-78
2021/10/15 05:34:23;;;;;;;8.32;5.90;;;;;;;12.38;74.82;100529.25;5024492;28;20049;-78
2021/10/15 05:36:49;;;;;;;12.18;7.45;;;;;;;12.30;74.62;100514.38;5006283;28;20041;-79
2021/10/15 05:39:15;;;;;;;7.78;6.45;;;;;;;12.38;74.98;100523.09;5005268;28;20041;-78
2021/10/15 05:41:40;;;;;;;8.48;5.70;;;;;;;12.38;74.96;100513.34;5002623;28;20543;-77
2021/10/15 05:44:06;;;;;;;11.25;6.35;;;;;;;12.43;74.78;100515.94;5004100;28;20034;-78
2021/10/15 05:46:31;;;;;;;9.23;6.95;;;;;;;12.41;74.99;100512.44;5001538;28;20404;-78
2021/10/15 05:48:56;;;;;;;8.20;6.70;;;;;;;12.33;75.08;100514.31;5006599;28;20025;-78
2021/10/15 05:51:24;;;;;;;9.52;6.97;;;;;;;12.34;75.30;100510.78;5005307;28;20088;-78
2021/10/15 05:53:51;;;;;;;8.38;6.03;;;;;;;12.44;75.12;100509.75;5003830;28;20405;-78
2021/10/15 05:56:34;;;;;;;9.73;6.82;;;;;;;12.46;75.18;100505.31;5004819;28;20049;-78
2021/10/15 05:59:06;;;;;;;11.32;7.07;;;;;;;12.43;74.98;100498.28;5006398;28;20042;-78
2021/10/15 06:01:33;;;;;;;10.25;7.80;;;;;;;12.43;75.30;100494.78;5006312;28;20100;-78
2021/10/15 06:07:36;;;;;;;8.88;7.20;;;;;;;12.46;75.08;100500.03;5021609;28;20030;-78
2021/10/15 06:14:47;;;;;;;12.07;8.93;;;;;;;12.49;75.28;100497.31;5020913;28;20045;-78
2021/10/15 06:17:15;;;;;;;10.80;8.02;;;;;;;12.49;75.14;100505.25;5006799;28;20042;-78
2021/10/15 06:22:27;;;;;;;12.25;8.25;;;;;;;12.52;74.97;100505.22;5005970;28;20091;-78
2021/10/15 06:24:53;;;;;;;12.68;8.48;;;;;;;12.50;75.46;100502.63;5007937;28;20435;-78
2021/10/15 06:27:20;;;;;;;10.25;8.57;;;;;;;12.55;74.61;100506.94;5003376;28;20038;-78
2021/10/15 06:29:46;;;;;;;12.35;9.25;;;;;;;12.61;75.00;100494.50;5007165;28;20022;-78
2021/10/15 06:32:11;;;;;;;10.95;8.23;;;;;;;12.62;74.96;100496.25;5001536;28;20045;-78
2021/10/15 06:34:37;;;;;;;12.32;9.25;;;;;;;12.72;74.78;100495.22;5005710;28;20129;-78
2021/10/15 06:37:02;;;;;;;12.93;9.95;;;;;;;12.71;74.81;100489.94;5005211;28;20034;-77
2021/10/15 06:39:27;;;;;;;15.18;10.18;;;;;;;12.69;74.79;100494.38;5005328;28;20034;-78
2021/10/15 06:41:52;;;;;;;14.55;9.85;;;;;;;12.73;73.87;100498.72;5006227;28;20037;-78
2021/10/15 06:44:18;;;;;;;11.38;9.00;;;;;;;12.76;74.39;100496.06;5004728;28;20524;-78
2021/10/15 06:46:43;;;;;;;13.30;9.13;;;;;;;12.66;74.44;100495.31;5006885;28;20491;-78
2021/10/15 06:49:09;;;;;;;11.75;9.27;;;;;;;12.79;74.47;100489.84;5003836;28;20477;-78
2021/10/15 06:51:36;;;;;;;13.75;9.77;;;;;;;12.78;74.18;100490.72;5007365;28;20042;-78
2021/10/15 06:54:01;;;;;;;13.13;9.18;;;;;;;12.82;73.75;100481.84;5003189;28;20049;-78
2021/10/15 06:56:26;;;;;;;11.65;8.60;;;;;;;12.92;74.31;100488.72;5007110;28;20037;-78
2021/10/15 06:58:52;;;;;;;13.30;9.80;;;;;;;12.79;73.77;100485.41;5003931;28;20046;-78
2021/10/15 07:01:17;;;;;;;16.27;10.07;;;;;;;12.79;73.56;100481.88;5005607;28;20389;-78
2021/10/15 07:03:43;;;;;;;13.25;8.65;;;;;;;12.90;73.47;100483.44;5008048;28;20080;-78
2021/10/15 07:06:08;;;;;;;13.77;9.30;;;;;;;12.99;73.34;100484.19;5009485;28;20041;-78
2021/10/15 07:08:33;;;;;;;14.00;9.18;;;;;;;12.98;73.51;100462.13;5009370;28;20041;-78
2021/10/15 07:10:59;;;;;;;11.85;8.15;;;;;;;13.02;73.24;100469.13;5004587;28;20046;-78
2021/10/15 07:13:24;;;;;;;12.68;7.95;;;;;;;13.03;73.00;100470.88;5008460;28;20049;-78
2021/10/15 07:15:50;;;;;;;12.13;8.52;;;;;;;13.02;73.16;100469.13;5019373;28;20042;-78
2021/10/15 07:18:15;;;;;;;10.55;7.93;;;;;;;12.98;72.42;100467.44;5007965;28;20041;-78
2021/10/15 07:20:42;;;;;;;13.05;8.57;;;;;;;12.95;73.31;100467.50;5007051;28;20034;-78
2021/10/15 07:23:09;;;;;;;10.98;7.95;;;;;;;13.00;73.15;100467.41;5017925;28;20050;-78
2021/10/15 07:25:34;;;;;;;11.57;7.07;;;;;;;13.13;72.63;100472.47;5003637;28;20493;-78
2021/10/15 07:28:00;;;;;;;11.95;7.95;;;;;;;13.15;72.06;100464.47;5006443;28;20164;-78
2021/10/15 07:30:25;;;;;;;11.13;7.47;;;;;;;13.08;71.97;100479.63;5003528;28;20477;-78
2021/10/15 07:32:52;;;;;;;11.43;7.88;;;;;;;13.18;72.05;100460.91;5005176;28;20051;-78
2021/10/15 07:35:18;;;;;;;9.60;7.75;;;;;;;13.25;71.54;100466.06;5003144;28;20407;-78
2021/10/15 07:37:43;;;;;;;9.98;7.07;;;;;;;13.42;70.99;100463.16;5020211;28;20035;-78
2021/10/15 07:40:09;;;;;;;9.77;7.03;;;;;;;13.56;70.15;100461.09;5004747;28;20073;-78
2021/10/15 07:42:35;;;;;;;10.35;6.57;;;;;;;13.76;69.99;100462.50;5018877;28;20129;-78
2021/10/15 07:45:00;;;;;;;11.82;7.47;;;;;;;13.77;69.15;100461.56;5005353;28;20135;-78
2021/10/15 07:47:26;;;;;;;11.55;7.18;;;;;;;13.81;68.83;100469.44;5018552;28;20042;-78
2021/10/15 07:49:51;;;;;;;8.98;6.47;;;;;;;13.88;68.91;100458.69;4988184;28;20037;-78
2021/10/15 07:52:17;;;;;;;9.60;6.25;;;;;;;14.00;68.35;100461.97;5003027;28;20460;-78
2021/10/15 07:54:42;;;;;;;8.32;5.97;;;;;;;13.98;68.28;100455.81;5005889;28;20038;-78
2021/10/15 07:57:08;;;;;;;10.02;6.70;;;;;;;14.05;68.17;100447.75;5017896;28;20083;-78
2021/10/15 07:59:34;;;;;;;11.38;6.00;;;;;;;14.02;67.85;100452.19;5005354;28;20049;-78
2021/10/15 08:01:59;;;;;;;9.43;6.47;;;;;;;13.93;67.61;100452.38;5003409;28;20106;-78
2021/10/15 08:04:24;;;;;;;9.60;7.20;;;;;;;13.99;67.92;100459.34;5004655;28;20038;-78
2021/10/15 08:06:50;;;;;;;9.40;6.35;;;;;;;14.05;67.93;100461.88;5003753;28;20025;-77
2021/10/15 08:09:16;;;;;;;9.70;6.80;;;;;;;14.09;67.64;100463.53;5003806;28;20096;-78
2021/10/15 08:11:41;;;;;;;9.70;5.85;;;;;;;14.08;66.35;100460.94;5002401;28;20033;-78
2021/10/15 08:14:06;;;;;;;6.85;5.30;;;;;;;14.15;67.39;100455.47;5003033;28;20050;-78
2021/10/15 08:16:33;;;;;;;8.57;5.72;;;;;;;14.22;66.74;100450.88;5004714;28;20494;-78
2021/10/15 08:18:58;;;;;;;8.93;5.40;;;;;;;14.11;67.24;100453.78;5017213;28;20088;-78
2021/10/15 08:21:23;;;;;;;7.03;5.13;;;;;;;14.12;67.28;100447.56;5003857;28;20029;-78
2021/10/15 08:23:49;;;;;;;9.55;5.47;;;;;;;14.07;67.54;100445.91;5002152;28;20053;-78
2021/10/15 08:26:15;;;;;;;7.32;5.07;;;;;;;14.05;67.60;100458.34;5005571;28;20088;-78
2021/10/15 08:28:41;;;;;;;8.23;5.40;;;;;;;14.08;67.20;100463.59;5002018;28;20405;-78
2021/10/15 08:31:07;;;;;;;11.07;7.55;;;;;;;14.23;66.83;100445.53;5004416;28;20045;-78
2021/10/15 08:33:32;;;;;;;8.80;5.03;;;;;;;14.32;66.66;100439.16;5017874;28;20547;-78
2021/10/15 08:35:57;;;;;;;10.00;5.13;;;;;;;14.41;66.29;100444.25;5003589;28;20536;-78
2021/10/15 08:38:23;;;;;;;7.15;4.80;;;;;;;14.47;65.83;100445.88;5003064;28;20091;-78
2021/10/15 08:40:49;;;;;;;8.32;4.10;;;;;;;14.62;65.88;100450.00;5002770;28;20129;-78
2021/10/15 08:43:15;;;;;;;9.77;4.25;;;;;;;14.70;65.23;100461.31;5003417;28;20160;-78
2021/10/15 08:45:41;;;;;;;9.40;4.38;;;;;;;14.70;65.04;100453.34;5002161;28;20495;-78
2021/10/15 08:48:07;;;;;;;7.90;4.07;;;;;;;14.75;64.41;100454.09;5004024;28;20037;-77
2021/10/15 08:50:33;;;;;;;6.35;4.25;;;;;;;14.80;64.00;100438.03;5001541;28;20084;-78
2021/10/15 08:52:59;;;;;;;6.70;4.05;;;;;;;14.84;64.31;100455.66;5004308;28;20033;-78
2021/10/15 08:55:24;;;;;;;7.85;3.97;;;;;;;14.88;64.30;100442.25;5000064;28;20485;-78
2021/10/15 08:57:55;;;;;;;6.75;2.92;;;;;;;14.85;64.08;100437.00;4999882;28;20049;-78
2021/10/15 09:00:25;;;;;;;5.22;2.95;;;;;;;14.83;63.51;100448.59;5004893;28;20479;-78
2021/10/15 09:03:16;;;;;;;6.78;3.17;;;;;;;14.69;62.85;100448.94;5016320;28;20420;-78
2021/10/15 09:05:52;;;;;;;5.22;2.55;;;;;;;14.57;62.81;100441.28;5000217;28;20038;-78
2021/10/15 09:08:18;;;;;;;5.20;2.67;;;;;;;14.73;63.70;100463.91;5017899;28;20046;-78
2021/10/15 09:10:44;;;;;;;5.47;2.47;;;;;;;14.73;62.67;100441.78;5004401;28;20034;-78
2021/10/15 09:13:19;;;;;;;5.50;2.28;;;;;;;14.54;61.43;100441.31;5003246;28;20026;-78
2021/10/15 09:15:46;;;;;;;6.13;2.80;;;;;;;14.68;61.68;100441.88;5017239;28;20444;-78
2021/10/15 09:18:15;;;;;;;4.63;1.98;;;;;;;14.73;61.28;100437.31;5003966;28;20092;-78
2021/10/15 09:20:41;;;;;;;4.10;1.80;;;;;;;14.81;61.99;100430.03;5002036;28;20042;-78
2021/10/15 09:23:07;;;;;;;5.00;2.38;;;;;;;14.79;60.55;100426.53;5011126;28;20076;-78
2021/10/15 09:25:39;;;;;;;4.22;1.85;;;;;;;14.89;61.13;100427.19;5027055;28;20408;-78
2021/10/15 09:28:19;;;;;;;3.83;1.70;;;;;;;14.89;60.55;100422.75;5005970;28;20041;-78
2021/10/15 09:30:47;;;;;;;4.18;2.22;;;;;;;14.82;59.25;100407.84;5023020;28;20192;-78
2021/10/15 09:33:12;;;;;;;5.18;1.70;;;;;;;14.83;59.93;100412.28;5020944;28;20485;-78
2021/10/15 09:35:38;;;;;;;4.53;1.85;;;;;;;14.94;60.86;100424.41;5006122;28;20049;-78
2021/10/15 09:38:06;;;;;;;7.05;2.25;;;;;;;14.92;59.69;100411.16;5011405;28;20481;-78
2021/10/15 09:40:37;;;;;;;6.00;2.08;;;;;;;14.77;59.08;100411.53;5016414;28;20121;-78
2021/10/15 09:43:07;;;;;;;5.22;1.90;;;;;;;14.61;59.04;100416.38;5016114;28;20034;-77
2021/10/15 09:45:36;;;;;;;4.70;2.42;;;;;;;14.51;60.29;100420.13;5014653;28;20042;-78
2021/10/15 09:48:16;;;;;;;3.22;1.55;;;;;;;14.56;60.22;100405.84;5016138;28;20098;-78
2021/10/15 09:50:41;;;;;;;4.47;1.90;;;;;;;14.69;60.37;100417.91;5013067;28;20045;-78
2021/10/15 09:53:08;;;;;;;4.53;2.08;;;;;;;14.83;60.05;100406.09;5016652;28;20041;-78
2021/10/15 09:55:39;;;;;;;6.38;2.50;;;;;;;14.86;59.93;100406.00;5014199;28;20058;-78
2021/10/15 09:58:12;;;;;;;6.18;2.72;;;;;;;14.99;59.21;100396.81;5016053;28;20073;-77
2021/10/15 10:00:39;;;;;;;6.72;2.17;;;;;;;15.02;58.42;100406.47;5012615;28;20081;-77
2021/10/15 10:03:04;;;;;;;4.32;2.40;;;;;;;15.05;58.90;100396.63;5013844;28;20054;-77
2021/10/15 10:05:30;;;;;;;5.35;2.78;;;;;;;15.11;58.85;100392.94;5020960;28;20048;-78
2021/10/15 10:07:57;;;;;;;5.47;2.63;;;;;;;15.15;59.15;100399.94;5016551;28;20523;-78
2021/10/15 10:10:25;;;;;;;7.45;2.63;;;;;;;15.22;58.45;100397.94;5014922;28;20068;-79
2021/10/15 10:12:52;;;;;;;5.80;2.72;;;;;;;15.29;59.12;100395.09;5016892;28;20044;-78
2021/10/15 10:15:23;;;;;;;5.47;2.75;;;;;;;15.19;58.10;100396.25;5016672;28;20116;-79
2021/10/15 10:18:08;;;;;;;4.93;2.30;;;;;;;15.23;58.15;100397.06;5020980;28;20061;-78
2021/10/15 10:20:36;;;;;;;7.72;2.50;;;;;;;15.34;58.17;100394.97;5022184;28;20064;-78
2021/10/15 10:23:08;;;;;;;5.85;2.22;;;;;;;15.62;58.05;100392.41;5016969;28;20022;-77
2021/10/15 10:25:35;;;;;;;;;;;;;;;15.83;56.94;100382.06;5023279;28;20168;-78
2021/10/15 10:28:17;;;;;;;5.05;2.60;;;;;;;15.98;57.78;100389.56;5015285;28;20380;-77
2021/10/15 10:30:44;;;;;;;5.95;2.30;;;;;;;16.07;57.06;100378.66;5014850;28;20033;-78
2021/10/15 10:33:10;;;;;;;4.78;1.70;;;;;;;16.12;56.03;100390.03;5010460;28;20030;-79
2021/10/15 10:35:36;;;;;;;3.85;1.88;;;;;;;16.02;55.14;100367.28;5011405;28;20070;-78
2021/10/15 10:38:19;;;;;;;4.63;1.60;;;;;;;16.13;55.09;100377.59;5023972;28;20041;-76
2021/10/15 10:41:10;;;;;;;5.40;2.00;;;;;;;16.16;55.35;100372.16;5031325;28;20038;-78
2021/10/15 10:43:45;;;;;;;3.85;2.00;;;;;;;16.07;54.87;100378.66;5014651;28;20026;-77
2021/10/15 10:46:11;;;;;;;3.50;1.85;;;;;;;16.08;54.40;100383.03;5011791;28;20044;-78
2021/10/15 10:48:49;;;;;;;4.30;1.52;;;;;;;16.14;54.81;100382.88;5021101;28;20050;-78
2021/10/15 10:51:20;;;;;;;3.65;1.88;;;;;;;16.33;54.38;100374.28;5013569;28;20034;-78
2021/10/15 10:54:00;;;;;;;5.28;2.03;;;;;;;16.53;55.22;100385.19;5018407;28;20065;-78
2021/10/15 10:56:38;;;;;;;5.45;1.80;;;;;;;16.58;54.39;100369.91;5017656;28;20069;-77
2021/10/15 10:59:25;;;;;;;5.28;2.45;;;;;;;16.72;54.28;100369.44;5013511;28;20045;-78
2021/10/15 11:02:20;;;;;;;4.35;1.80;;;;;;;16.85;53.25;100383.25;5022439;28;20033;-78
2021/10/15 11:04:54;;;;;;;7.40;1.90;;;;;;;16.83;54.39;100374.44;5029511;28;20069;-78
2021/10/15 11:07:20;;;;;;;3.58;1.50;;;;;;;16.94;54.50;100363.38;5015961;28;20042;-78
2021/10/15 11:09:50;;;;;;;5.38;1.85;;;;;;;16.66;53.44;100372.28;5031687;28;20053;-78
2021/10/15 11:12:26;;;;;;;3.95;1.75;;;;;;;16.38;53.78;100367.91;5014974;28;20038;-78
2021/10/15 11:15:03;;;;;;;3.55;1.75;;;;;;;16.13;54.12;100378.44;5013380;28;20045;-78
2021/10/15 11:17:41;;;;;;;3.60;1.70;;;;;;;16.15;54.80;100381.94;5015788;28;20034;-78
2021/10/15 11:20:24;;;;;;;3.90;1.70;;;;;;;15.96;55.76;100384.31;5018145;28;20532;-77
2021/10/15 11:22:54;;;;;;;4.25;1.98;;;;;;;15.87;56.13;100379.25;5016118;28;20033;-78
2021/10/15 11:25:21;;;;;;;4.22;1.60;;;;;;;15.91;56.23;100388.91;5027905;28;20034;-77
2021/10/15 11:27:55;;;;;;;3.40;1.35;;;;;;;15.84;55.93;100386.47;5019754;28;20062;-78
2021/10/15 11:30:23;;;;;;;4.90;1.80;;;;;;;15.81;56.82;100382.09;5015623;28;20101;-77
2021/10/15 11:32:50;;;;;;;4.88;1.70;;;;;;;15.88;56.41;100375.69;5015217;28;20037;-78